sensor_id;sensor_type;location;lat;lon;timestamp;P1;durP1;ratioP1;P2;durP2;ratioP2
38609;SDS011;24367;51.640;9.566;2023-05-10T00:00:16;2.53;;;1.65;;
38609;SDS011;24367;51.640;9.566;2023-05-10T00:02:44;3.10;;;1.58;;
38609;SDS011;24367;51.640;9.566;2023-05-10T00:05:11;2.95;;;1.60;;
38609;SDS011;24367;51.640;9.566;2023-05-10T00:07:37;4.40;;;1.92;;
38609;SDS011;24367;51.640;9.566;2023-05-10T00:10:04;2.28;;;1.35;;
38609;SDS011;24367;51.640;9.566;2023-05-10T00:12:31;1.70;;;1.23;;
38609;SDS011;24367;51.640;9.566;2023-05-10T00:14:57;2.53;;;1.50;;
38609;SDS011;24367;51.640;9.566;2023-05-10T00:17:23;3.72;;;1.70;;
38609;SDS011;24367;51.640;9.566;2023-05-10T00:19:51;3.80;;;1.60;;
38609;SDS011;24367;51.640;9.566;2023-05-10T00:22:18;2.33;;;1.38;;
38609;SDS011;24367;51.640;9.566;2023-05-10T00:24:44;3.85;;;1.38;;
38609;SDS011;24367;51.640;9.566;2023-05-10T00:27:11;2.92;;;1.65;;
38609;SDS011;24367;51.640;9.566;2023-05-10T00:29:37;3.13;;;1.85;;
38609;SDS011;24367;51.640;9.566;2023-05-10T00:32:04;3.33;;;1.45;;
38609;SDS011;24367;51.640;9.566;2023-05-10T00:34:30;2.30;;;1.45;;
38609;SDS011;24367;51.640;9.566;2023-05-10T00:36:58;2.67;;;1.92;;
38609;SDS011;24367;51.640;9.566;2023-05-10T00:39:25;2.17;;;1.40;;
38609;SDS011;24367;51.640;9.566;2023-05-10T00:41:53;2.35;;;1.67;;
38609;SDS011;24367;51.640;9.566;2023-05-10T00:44:20;2.65;;;1.42;;
38609;SDS011;24367;51.640;9.566;2023-05-10T00:46:46;2.65;;;1.65;;
38609;SDS011;24367;51.640;9.566;2023-05-10T00:49:14;2.22;;;1.40;;
38609;SDS011;24367;51.640;9.566;2023-05-10T00:51:41;3.10;;;1.50;;
38609;SDS011;24367;51.640;9.566;2023-05-10T00:54:09;2.25;;;1.45;;
38609;SDS011;24367;51.640;9.566;2023-05-10T00:56:36;2.72;;;1.50;;
38609;SDS011;24367;51.640;9.566;2023-05-10T00:59:02;2.13;;;1.30;;
38609;SDS011;24367;51.640;9.566;2023-05-10T01:01:29;2.72;;;1.60;;
38609;SDS011;24367;51.640;9.566;2023-05-10T01:03:55;2.92;;;1.50;;
38609;SDS011;24367;51.640;9.566;2023-05-10T01:06:22;3.13;;;1.70;;
38609;SDS011;24367;51.640;9.566;2023-05-10T01:08:48;2.85;;;1.63;;
38609;SDS011;24367;51.640;9.566;2023-05-10T01:11:16;2.17;;;1.50;;
38609;SDS011;24367;51.640;9.566;2023-05-10T01:13:43;2.38;;;1.40;;
38609;SDS011;24367;51.640;9.566;2023-05-10T01:16:14;2.00;;;1.35;;
38609;SDS011;24367;51.640;9.566;2023-05-10T01:18:40;2.83;;;1.40;;
38609;SDS011;24367;51.640;9.566;2023-05-10T01:21:11;2.28;;;1.40;;
38609;SDS011;24367;51.640;9.566;2023-05-10T01:23:58;2.85;;;1.40;;
38609;SDS011;24367;51.640;9.566;2023-05-10T01:26:54;2.40;;;1.50;;
38609;SDS011;24367;51.640;9.566;2023-05-10T01:30:00;2.30;;;1.60;;
38609;SDS011;24367;51.640;9.566;2023-05-10T01:32:35;2.10;;;1.42;;
38609;SDS011;24367;51.640;9.566;2023-05-10T01:35:03;2.35;;;1.35;;
38609;SDS011;24367;51.640;9.566;2023-05-10T01:37:39;2.90;;;1.50;;
38609;SDS011;24367;51.640;9.566;2023-05-10T01:40:08;2.70;;;1.50;;
38609;SDS011;24367;51.640;9.566;2023-05-10T01:42:42;2.47;;;1.67;;
38609;SDS011;24367;51.640;9.566;2023-05-10T01:45:14;2.83;;;1.63;;
38609;SDS011;24367;51.640;9.566;2023-05-10T01:47:46;2.20;;;1.40;;
38609;SDS011;24367;51.640;9.566;2023-05-10T01:50:16;2.90;;;1.67;;
38609;SDS011;24367;51.640;9.566;2023-05-10T01:52:47;2.20;;;1.45;;
38609;SDS011;24367;51.640;9.566;2023-05-10T01:55:18;2.10;;;1.23;;
38609;SDS011;24367;51.640;9.566;2023-05-10T01:57:46;2.63;;;1.33;;
38609;SDS011;24367;51.640;9.566;2023-05-10T02:00:13;3.08;;;1.38;;
38609;SDS011;24367;51.640;9.566;2023-05-10T02:02:42;2.42;;;1.60;;
38609;SDS011;24367;51.640;9.566;2023-05-10T02:05:13;3.88;;;1.50;;
38609;SDS011;24367;51.640;9.566;2023-05-10T02:07:41;1.73;;;1.20;;
38609;SDS011;24367;51.640;9.566;2023-05-10T02:10:09;1.92;;;1.40;;
38609;SDS011;24367;51.640;9.566;2023-05-10T02:12:37;2.45;;;1.52;;
38609;SDS011;24367;51.640;9.566;2023-05-10T02:15:06;2.60;;;1.52;;
38609;SDS011;24367;51.640;9.566;2023-05-10T02:17:34;2.83;;;1.60;;
38609;SDS011;24367;51.640;9.566;2023-05-10T02:20:03;2.08;;;1.42;;
38609;SDS011;24367;51.640;9.566;2023-05-10T02:22:31;2.42;;;1.48;;
38609;SDS011;24367;51.640;9.566;2023-05-10T02:24:58;2.35;;;1.38;;
38609;SDS011;24367;51.640;9.566;2023-05-10T02:27:27;2.10;;;1.35;;
38609;SDS011;24367;51.640;9.566;2023-05-10T02:29:54;2.45;;;1.42;;
38609;SDS011;24367;51.640;9.566;2023-05-10T02:32:21;3.78;;;1.88;;
38609;SDS011;24367;51.640;9.566;2023-05-10T02:34:49;2.40;;;1.58;;
38609;SDS011;24367;51.640;9.566;2023-05-10T02:37:18;2.97;;;1.45;;
38609;SDS011;24367;51.640;9.566;2023-05-10T02:39:45;2.10;;;1.20;;
38609;SDS011;24367;51.640;9.566;2023-05-10T02:42:14;2.72;;;1.50;;
38609;SDS011;24367;51.640;9.566;2023-05-10T02:44:43;2.35;;;1.52;;
38609;SDS011;24367;51.640;9.566;2023-05-10T02:47:13;2.38;;;1.40;;
38609;SDS011;24367;51.640;9.566;2023-05-10T02:49:40;1.83;;;1.30;;
38609;SDS011;24367;51.640;9.566;2023-05-10T02:52:07;2.42;;;1.52;;
38609;SDS011;24367;51.640;9.566;2023-05-10T02:54:39;2.10;;;1.30;;
38609;SDS011;24367;51.640;9.566;2023-05-10T02:57:10;2.13;;;1.20;;
38609;SDS011;24367;51.640;9.566;2023-05-10T02:59:40;2.53;;;1.60;;
38609;SDS011;24367;51.640;9.566;2023-05-10T03:02:07;2.28;;;1.50;;
38609;SDS011;24367;51.640;9.566;2023-05-10T03:04:34;2.10;;;1.40;;
38609;SDS011;24367;51.640;9.566;2023-05-10T03:07:01;3.15;;;1.35;;
38609;SDS011;24367;51.640;9.566;2023-05-10T03:09:27;2.78;;;1.67;;
38609;SDS011;24367;51.640;9.566;2023-05-10T03:12:00;2.28;;;1.50;;
38609;SDS011;24367;51.640;9.566;2023-05-10T03:17:04;2.08;;;1.38;;
38609;SDS011;24367;51.640;9.566;2023-05-10T03:19:35;2.38;;;1.65;;
38609;SDS011;24367;51.640;9.566;2023-05-10T03:22:08;1.70;;;1.27;;
38609;SDS011;24367;51.640;9.566;2023-05-10T03:24:37;2.10;;;1.45;;
38609;SDS011;24367;51.640;9.566;2023-05-10T03:27:07;2.67;;;1.52;;
38609;SDS011;24367;51.640;9.566;2023-05-10T03:29:34;3.20;;;1.50;;
38609;SDS011;24367;51.640;9.566;2023-05-10T03:32:01;2.03;;;1.40;;
38609;SDS011;24367;51.640;9.566;2023-05-10T03:34:29;2.10;;;1.38;;
38609;SDS011;24367;51.640;9.566;2023-05-10T03:36:56;2.17;;;1.55;;
38609;SDS011;24367;51.640;9.566;2023-05-10T03:39:25;1.60;;;1.10;;
38609;SDS011;24367;51.640;9.566;2023-05-10T03:41:55;2.63;;;1.50;;
38609;SDS011;24367;51.640;9.566;2023-05-10T03:44:23;2.38;;;1.55;;
38609;SDS011;24367;51.640;9.566;2023-05-10T03:46:50;2.80;;;1.50;;
38609;SDS011;24367;51.640;9.566;2023-05-10T03:49:16;1.98;;;1.38;;
38609;SDS011;24367;51.640;9.566;2023-05-10T03:51:43;4.18;;;1.48;;
38609;SDS011;24367;51.640;9.566;2023-05-10T03:54:09;1.80;;;1.13;;
38609;SDS011;24367;51.640;9.566;2023-05-10T03:56:35;3.22;;;1.50;;
38609;SDS011;24367;51.640;9.566;2023-05-10T03:59:02;3.05;;;1.15;;
38609;SDS011;24367;51.640;9.566;2023-05-10T04:01:33;1.92;;;1.33;;
38609;SDS011;24367;51.640;9.566;2023-05-10T04:04:00;2.28;;;1.50;;
38609;SDS011;24367;51.640;9.566;2023-05-10T04:06:26;1.98;;;1.35;;
38609;SDS011;24367;51.640;9.566;2023-05-10T04:08:53;2.33;;;1.33;;
38609;SDS011;24367;51.640;9.566;2023-05-10T04:11:20;1.70;;;1.20;;
38609;SDS011;24367;51.640;9.566;2023-05-10T04:13:47;2.28;;;1.23;;
38609;SDS011;24367;51.640;9.566;2023-05-10T04:16:14;2.15;;;1.40;;
38609;SDS011;24367;51.640;9.566;2023-05-10T04:18:41;2.35;;;1.35;;
38609;SDS011;24367;51.640;9.566;2023-05-10T04:21:11;2.17;;;1.40;;
38609;SDS011;24367;51.640;9.566;2023-05-10T04:23:38;2.17;;;1.40;;
38609;SDS011;24367;51.640;9.566;2023-05-10T04:26:04;2.55;;;1.30;;
38609;SDS011;24367;51.640;9.566;2023-05-10T04:28:31;2.05;;;1.42;;
38609;SDS011;24367;51.640;9.566;2023-05-10T04:31:01;3.25;;;1.40;;
38609;SDS011;24367;51.640;9.566;2023-05-10T04:33:28;2.45;;;1.38;;
38609;SDS011;24367;51.640;9.566;2023-05-10T04:35:56;2.08;;;1.45;;
38609;SDS011;24367;51.640;9.566;2023-05-10T04:38:22;1.98;;;1.45;;
38609;SDS011;24367;51.640;9.566;2023-05-10T04:40:49;2.67;;;1.48;;
38609;SDS011;24367;51.640;9.566;2023-05-10T04:43:15;2.13;;;1.40;;
38609;SDS011;24367;51.640;9.566;2023-05-10T04:45:41;1.88;;;1.40;;
38609;SDS011;24367;51.640;9.566;2023-05-10T04:48:08;1.88;;;1.33;;
38609;SDS011;24367;51.640;9.566;2023-05-10T04:50:34;3.47;;;1.30;;
38609;SDS011;24367;51.640;9.566;2023-05-10T04:53:02;1.83;;;1.20;;
38609;SDS011;24367;51.640;9.566;2023-05-10T04:55:29;2.10;;;1.40;;
38609;SDS011;24367;51.640;9.566;2023-05-10T04:57:55;2.33;;;1.40;;
38609;SDS011;24367;51.640;9.566;2023-05-10T05:00:22;2.00;;;1.25;;
38609;SDS011;24367;51.640;9.566;2023-05-10T05:02:49;1.77;;;1.30;;
38609;SDS011;24367;51.640;9.566;2023-05-10T05:05:16;2.30;;;1.50;;
38609;SDS011;24367;51.640;9.566;2023-05-10T05:07:43;2.30;;;1.38;;
38609;SDS011;24367;51.640;9.566;2023-05-10T05:10:11;2.65;;;1.40;;
38609;SDS011;24367;51.640;9.566;2023-05-10T05:12:37;2.03;;;1.23;;
38609;SDS011;24367;51.640;9.566;2023-05-10T05:15:04;2.25;;;1.50;;
38609;SDS011;24367;51.640;9.566;2023-05-10T05:17:31;2.40;;;1.50;;
38609;SDS011;24367;51.640;9.566;2023-05-10T05:19:57;2.40;;;1.20;;
38609;SDS011;24367;51.640;9.566;2023-05-10T05:22:24;2.83;;;1.33;;
38609;SDS011;24367;51.640;9.566;2023-05-10T05:24:52;3.05;;;1.40;;
38609;SDS011;24367;51.640;9.566;2023-05-10T05:27:20;2.55;;;1.30;;
38609;SDS011;24367;51.640;9.566;2023-05-10T05:29:49;1.70;;;1.20;;
38609;SDS011;24367;51.640;9.566;2023-05-10T05:32:15;2.35;;;1.60;;
38609;SDS011;24367;51.640;9.566;2023-05-10T05:34:43;2.60;;;1.40;;
38609;SDS011;24367;51.640;9.566;2023-05-10T05:37:12;2.35;;;1.58;;
38609;SDS011;24367;51.640;9.566;2023-05-10T05:39:39;3.88;;;1.65;;
38609;SDS011;24367;51.640;9.566;2023-05-10T05:42:05;4.50;;;1.85;;
38609;SDS011;24367;51.640;9.566;2023-05-10T05:44:33;3.92;;;1.60;;
38609;SDS011;24367;51.640;9.566;2023-05-10T05:47:00;2.63;;;1.50;;
38609;SDS011;24367;51.640;9.566;2023-05-10T05:49:26;2.53;;;1.35;;
38609;SDS011;24367;51.640;9.566;2023-05-10T05:51:53;3.40;;;1.50;;
38609;SDS011;24367;51.640;9.566;2023-05-10T05:54:20;2.50;;;1.45;;
38609;SDS011;24367;51.640;9.566;2023-05-10T05:56:46;5.38;;;1.67;;
38609;SDS011;24367;51.640;9.566;2023-05-10T05:59:13;2.97;;;1.65;;
38609;SDS011;24367;51.640;9.566;2023-05-10T06:01:41;2.83;;;1.42;;
38609;SDS011;24367;51.640;9.566;2023-05-10T06:04:07;4.63;;;1.88;;
38609;SDS011;24367;51.640;9.566;2023-05-10T06:06:33;4.00;;;1.70;;
38609;SDS011;24367;51.640;9.566;2023-05-10T06:09:00;3.55;;;1.80;;
38609;SDS011;24367;51.640;9.566;2023-05-10T06:11:26;2.38;;;1.70;;
38609;SDS011;24367;51.640;9.566;2023-05-10T06:13:53;3.88;;;1.73;;
38609;SDS011;24367;51.640;9.566;2023-05-10T06:16:19;2.55;;;1.60;;
38609;SDS011;24367;51.640;9.566;2023-05-10T06:18:47;3.97;;;1.70;;
38609;SDS011;24367;51.640;9.566;2023-05-10T06:21:13;2.28;;;1.30;;
38609;SDS011;24367;51.640;9.566;2023-05-10T06:23:40;2.08;;;1.30;;
38609;SDS011;24367;51.640;9.566;2023-05-10T06:26:06;3.90;;;1.40;;
38609;SDS011;24367;51.640;9.566;2023-05-10T06:28:32;3.67;;;1.58;;
38609;SDS011;24367;51.640;9.566;2023-05-10T06:30:59;3.80;;;1.73;;
38609;SDS011;24367;51.640;9.566;2023-05-10T06:33:26;3.15;;;1.55;;
38609;SDS011;24367;51.640;9.566;2023-05-10T06:35:54;2.85;;;1.40;;
38609;SDS011;24367;51.640;9.566;2023-05-10T06:38:20;2.10;;;1.40;;
38609;SDS011;24367;51.640;9.566;2023-05-10T06:40:47;3.65;;;1.50;;
38609;SDS011;24367;51.640;9.566;2023-05-10T06:43:13;4.30;;;1.70;;
38609;SDS011;24367;51.640;9.566;2023-05-10T06:45:40;2.55;;;1.40;;
38609;SDS011;24367;51.640;9.566;2023-05-10T06:48:07;2.28;;;1.42;;
38609;SDS011;24367;51.640;9.566;2023-05-10T06:50:33;3.72;;;1.52;;
38609;SDS011;24367;51.640;9.566;2023-05-10T06:53:01;2.70;;;1.50;;
38609;SDS011;24367;51.640;9.566;2023-05-10T06:55:28;3.70;;;1.50;;
38609;SDS011;24367;51.640;9.566;2023-05-10T06:57:54;2.25;;;1.50;;
38609;SDS011;24367;51.640;9.566;2023-05-10T07:00:20;2.65;;;1.50;;
38609;SDS011;24367;51.640;9.566;2023-05-10T07:02:47;2.67;;;1.38;;
38609;SDS011;24367;51.640;9.566;2023-05-10T07:05:13;2.88;;;1.70;;
38609;SDS011;24367;51.640;9.566;2023-05-10T07:07:40;1.73;;;1.20;;
38609;SDS011;24367;51.640;9.566;2023-05-10T07:10:09;4.40;;;1.55;;
38609;SDS011;24367;51.640;9.566;2023-05-10T07:12:35;2.38;;;1.35;;
38609;SDS011;24367;51.640;9.566;2023-05-10T07:15:03;3.58;;;1.65;;
38609;SDS011;24367;51.640;9.566;2023-05-10T07:17:30;2.28;;;1.27;;
38609;SDS011;24367;51.640;9.566;2023-05-10T07:19:58;3.30;;;1.40;;
38609;SDS011;24367;51.640;9.566;2023-05-10T07:22:25;3.10;;;1.30;;
38609;SDS011;24367;51.640;9.566;2023-05-10T07:24:51;2.65;;;1.75;;
38609;SDS011;24367;51.640;9.566;2023-05-10T07:27:19;1.98;;;1.10;;
38609;SDS011;24367;51.640;9.566;2023-05-10T07:29:45;1.80;;;1.20;;
38609;SDS011;24367;51.640;9.566;2023-05-10T07:32:12;2.05;;;1.23;;
38609;SDS011;24367;51.640;9.566;2023-05-10T07:34:38;2.60;;;1.63;;
38609;SDS011;24367;51.640;9.566;2023-05-10T07:37:05;1.98;;;1.40;;
38609;SDS011;24367;51.640;9.566;2023-05-10T07:39:32;1.67;;;1.10;;
38609;SDS011;24367;51.640;9.566;2023-05-10T07:41:58;3.78;;;1.15;;
38609;SDS011;24367;51.640;9.566;2023-05-10T07:44:26;4.72;;;1.50;;
38609;SDS011;24367;51.640;9.566;2023-05-10T07:46:52;3.20;;;1.38;;
38609;SDS011;24367;51.640;9.566;2023-05-10T07:49:19;2.85;;;1.00;;
38609;SDS011;24367;51.640;9.566;2023-05-10T07:51:45;3.20;;;1.27;;
38609;SDS011;24367;51.640;9.566;2023-05-10T07:54:12;2.83;;;1.30;;
38609;SDS011;24367;51.640;9.566;2023-05-10T07:56:40;1.77;;;1.10;;
38609;SDS011;24367;51.640;9.566;2023-05-10T07:59:14;3.30;;;1.40;;
38609;SDS011;24367;51.640;9.566;2023-05-10T08:01:42;2.55;;;1.38;;
38609;SDS011;24367;51.640;9.566;2023-05-10T08:04:09;2.40;;;1.35;;
38609;SDS011;24367;51.640;9.566;2023-05-10T08:06:36;1.65;;;1.00;;
38609;SDS011;24367;51.640;9.566;2023-05-10T08:09:03;2.35;;;1.30;;
38609;SDS011;24367;51.640;9.566;2023-05-10T08:11:29;1.70;;;1.30;;
38609;SDS011;24367;51.640;9.566;2023-05-10T08:13:55;2.60;;;1.30;;
38609;SDS011;24367;51.640;9.566;2023-05-10T08:16:22;2.65;;;1.10;;
38609;SDS011;24367;51.640;9.566;2023-05-10T08:18:50;2.38;;;1.23;;
38609;SDS011;24367;51.640;9.566;2023-05-10T08:21:16;1.98;;;1.10;;
38609;SDS011;24367;51.640;9.566;2023-05-10T08:23:43;4.55;;;1.38;;
38609;SDS011;24367;51.640;9.566;2023-05-10T08:26:09;1.75;;;1.20;;
38609;SDS011;24367;51.640;9.566;2023-05-10T08:28:36;3.85;;;1.13;;
38609;SDS011;24367;51.640;9.566;2023-05-10T08:31:02;2.30;;;0.90;;
38609;SDS011;24367;51.640;9.566;2023-05-10T08:33:30;1.73;;;1.02;;
38609;SDS011;24367;51.640;9.566;2023-05-10T08:35:57;2.53;;;1.23;;
38609;SDS011;24367;51.640;9.566;2023-05-10T08:38:24;2.42;;;1.50;;
38609;SDS011;24367;51.640;9.566;2023-05-10T08:40:50;2.47;;;1.45;;
38609;SDS011;24367;51.640;9.566;2023-05-10T08:43:21;2.33;;;1.20;;
38609;SDS011;24367;51.640;9.566;2023-05-10T08:45:48;4.13;;;1.70;;
38609;SDS011;24367;51.640;9.566;2023-05-10T08:48:15;2.67;;;1.30;;
38609;SDS011;24367;51.640;9.566;2023-05-10T08:50:44;3.92;;;1.75;;
38609;SDS011;24367;51.640;9.566;2023-05-10T08:53:13;2.50;;;1.50;;
38609;SDS011;24367;51.640;9.566;2023-05-10T08:55:41;3.67;;;1.70;;
38609;SDS011;24367;51.640;9.566;2023-05-10T08:58:08;2.85;;;1.40;;
38609;SDS011;24367;51.640;9.566;2023-05-10T09:00:35;3.42;;;1.60;;
38609;SDS011;24367;51.640;9.566;2023-05-10T09:03:02;4.32;;;1.77;;
38609;SDS011;24367;51.640;9.566;2023-05-10T09:05:29;2.83;;;1.63;;
38609;SDS011;24367;51.640;9.566;2023-05-10T09:07:55;3.03;;;1.58;;
38609;SDS011;24367;51.640;9.566;2023-05-10T09:10:23;3.80;;;1.60;;
38609;SDS011;24367;51.640;9.566;2023-05-10T09:12:52;2.33;;;1.42;;
38609;SDS011;24367;51.640;9.566;2023-05-10T09:15:19;3.55;;;1.77;;
38609;SDS011;24367;51.640;9.566;2023-05-10T09:17:46;3.80;;;1.50;;
38609;SDS011;24367;51.640;9.566;2023-05-10T09:20:12;3.53;;;1.80;;
38609;SDS011;24367;51.640;9.566;2023-05-10T09:22:39;3.50;;;1.70;;
38609;SDS011;24367;51.640;9.566;2023-05-10T09:25:06;3.85;;;1.85;;
38609;SDS011;24367;51.640;9.566;2023-05-10T09:27:35;2.92;;;1.60;;
38609;SDS011;24367;51.640;9.566;2023-05-10T09:30:02;3.13;;;1.40;;
38609;SDS011;24367;51.640;9.566;2023-05-10T09:32:39;3.33;;;1.63;;
38609;SDS011;24367;51.640;9.566;2023-05-10T09:35:06;3.90;;;1.48;;
38609;SDS011;24367;51.640;9.566;2023-05-10T09:37:36;4.88;;;1.98;;
38609;SDS011;24367;51.640;9.566;2023-05-10T09:40:06;3.67;;;1.55;;
38609;SDS011;24367;51.640;9.566;2023-05-10T09:42:34;4.55;;;1.50;;
38609;SDS011;24367;51.640;9.566;2023-05-10T09:45:02;2.65;;;1.45;;
38609;SDS011;24367;51.640;9.566;2023-05-10T09:47:31;3.03;;;1.65;;
38609;SDS011;24367;51.640;9.566;2023-05-10T09:49:58;2.90;;;1.75;;
38609;SDS011;24367;51.640;9.566;2023-05-10T09:52:28;2.60;;;1.50;;
38609;SDS011;24367;51.640;9.566;2023-05-10T09:54:54;4.00;;;1.55;;
38609;SDS011;24367;51.640;9.566;2023-05-10T09:57:21;2.83;;;1.65;;
38609;SDS011;24367;51.640;9.566;2023-05-10T09:59:49;2.92;;;1.60;;
38609;SDS011;24367;51.640;9.566;2023-05-10T10:02:16;3.08;;;1.50;;
38609;SDS011;24367;51.640;9.566;2023-05-10T10:04:43;3.42;;;1.42;;
38609;SDS011;24367;51.640;9.566;2023-05-10T10:07:09;3.40;;;1.50;;
38609;SDS011;24367;51.640;9.566;2023-05-10T10:09:36;2.83;;;1.38;;
38609;SDS011;24367;51.640;9.566;2023-05-10T10:12:03;3.97;;;1.70;;
38609;SDS011;24367;51.640;9.566;2023-05-10T10:14:30;3.80;;;1.60;;
38609;SDS011;24367;51.640;9.566;2023-05-10T10:16:57;2.50;;;1.20;;
38609;SDS011;24367;51.640;9.566;2023-05-10T10:19:26;2.83;;;1.40;;
38609;SDS011;24367;51.640;9.566;2023-05-10T10:21:53;2.83;;;1.20;;
38609;SDS011;24367;51.640;9.566;2023-05-10T10:24:19;2.90;;;1.50;;
38609;SDS011;24367;51.640;9.566;2023-05-10T10:26:46;3.25;;;1.40;;
38609;SDS011;24367;51.640;9.566;2023-05-10T10:29:17;4.63;;;1.60;;
38609;SDS011;24367;51.640;9.566;2023-05-10T10:31:51;2.50;;;1.13;;
38609;SDS011;24367;51.640;9.566;2023-05-10T10:34:26;2.85;;;1.40;;
38609;SDS011;24367;51.640;9.566;2023-05-10T10:36:54;3.67;;;1.50;;
38609;SDS011;24367;51.640;9.566;2023-05-10T10:39:21;2.83;;;1.33;;
38609;SDS011;24367;51.640;9.566;2023-05-10T10:41:50;2.65;;;1.30;;
38609;SDS011;24367;51.640;9.566;2023-05-10T10:44:24;3.03;;;1.55;;
38609;SDS011;24367;51.640;9.566;2023-05-10T10:47:00;3.30;;;1.50;;
38609;SDS011;24367;51.640;9.566;2023-05-10T10:49:31;2.70;;;1.40;;
38609;SDS011;24367;51.640;9.566;2023-05-10T10:54:59;2.67;;;1.13;;
38609;SDS011;24367;51.640;9.566;2023-05-10T10:57:26;1.55;;;0.77;;
38609;SDS011;24367;51.640;9.566;2023-05-10T11:02:53;3.40;;;1.45;;
38609;SDS011;24367;51.640;9.566;2023-05-10T11:05:35;2.95;;;1.38;;
38609;SDS011;24367;51.640;9.566;2023-05-10T11:08:09;2.75;;;1.25;;
38609;SDS011;24367;51.640;9.566;2023-05-10T11:10:36;3.38;;;1.50;;
38609;SDS011;24367;51.640;9.566;2023-05-10T11:13:04;2.67;;;1.40;;
38609;SDS011;24367;51.640;9.566;2023-05-10T11:15:31;2.75;;;1.42;;
38609;SDS011;24367;51.640;9.566;2023-05-10T11:17:58;2.28;;;1.10;;
38609;SDS011;24367;51.640;9.566;2023-05-10T11:20:27;2.67;;;1.38;;
38609;SDS011;24367;51.640;9.566;2023-05-10T11:23:10;2.63;;;1.48;;
38609;SDS011;24367;51.640;9.566;2023-05-10T11:25:40;3.50;;;1.65;;
38609;SDS011;24367;51.640;9.566;2023-05-10T11:28:07;3.25;;;1.40;;
38609;SDS011;24367;51.640;9.566;2023-05-10T11:30:34;2.63;;;1.60;;
38609;SDS011;24367;51.640;9.566;2023-05-10T11:33:01;2.28;;;1.65;;
38609;SDS011;24367;51.640;9.566;2023-05-10T11:35:28;2.72;;;1.70;;
38609;SDS011;24367;51.640;9.566;2023-05-10T11:37:54;4.47;;;1.90;;
38609;SDS011;24367;51.640;9.566;2023-05-10T11:40:22;3.13;;;1.85;;
38609;SDS011;24367;51.640;9.566;2023-05-10T11:42:49;3.63;;;2.20;;
38609;SDS011;24367;51.640;9.566;2023-05-10T11:45:16;4.25;;;2.42;;
38609;SDS011;24367;51.640;9.566;2023-05-10T11:47:43;3.75;;;2.20;;
38609;SDS011;24367;51.640;9.566;2023-05-10T11:50:10;5.22;;;2.65;;
38609;SDS011;24367;51.640;9.566;2023-05-10T11:52:36;3.85;;;2.67;;
38609;SDS011;24367;51.640;9.566;2023-05-10T11:55:03;6.45;;;2.92;;
38609;SDS011;24367;51.640;9.566;2023-05-10T11:57:31;3.60;;;3.00;;
38609;SDS011;24367;51.640;9.566;2023-05-10T11:59:58;4.85;;;3.25;;
38609;SDS011;24367;51.640;9.566;2023-05-10T12:02:25;3.95;;;2.63;;
38609;SDS011;24367;51.640;9.566;2023-05-10T12:04:51;5.57;;;3.75;;
38609;SDS011;24367;51.640;9.566;2023-05-10T12:07:18;7.38;;;3.08;;
38609;SDS011;24367;51.640;9.566;2023-05-10T12:09:44;5.47;;;3.50;;
38609;SDS011;24367;51.640;9.566;2023-05-10T12:12:36;4.70;;;2.90;;
38609;SDS011;24367;51.640;9.566;2023-05-10T12:15:04;7.80;;;3.30;;
38609;SDS011;24367;51.640;9.566;2023-05-10T12:17:31;8.63;;;3.20;;
38609;SDS011;24367;51.640;9.566;2023-05-10T12:19:58;5.57;;;3.10;;
38609;SDS011;24367;51.640;9.566;2023-05-10T12:22:25;6.80;;;3.80;;
38609;SDS011;24367;51.640;9.566;2023-05-10T12:24:51;6.00;;;3.35;;
38609;SDS011;24367;51.640;9.566;2023-05-10T12:27:18;11.23;;;3.67;;
38609;SDS011;24367;51.640;9.566;2023-05-10T12:29:46;8.88;;;3.08;;
38609;SDS011;24367;51.640;9.566;2023-05-10T12:32:14;7.13;;;3.30;;
38609;SDS011;24367;51.640;9.566;2023-05-10T12:34:40;4.75;;;3.33;;
38609;SDS011;24367;51.640;9.566;2023-05-10T12:37:07;4.90;;;3.58;;
38609;SDS011;24367;51.640;9.566;2023-05-10T12:39:40;5.10;;;3.88;;
38609;SDS011;24367;51.640;9.566;2023-05-10T12:42:07;4.75;;;3.47;;
38609;SDS011;24367;51.640;9.566;2023-05-10T12:44:33;15.20;;;4.65;;
38609;SDS011;24367;51.640;9.566;2023-05-10T12:47:01;9.77;;;3.85;;
38609;SDS011;24367;51.640;9.566;2023-05-10T12:49:28;6.20;;;3.10;;
38609;SDS011;24367;51.640;9.566;2023-05-10T12:51:54;5.30;;;2.88;;
38609;SDS011;24367;51.640;9.566;2023-05-10T12:54:21;9.30;;;3.00;;
38609;SDS011;24367;51.640;9.566;2023-05-10T12:56:47;4.05;;;2.55;;
38609;SDS011;24367;51.640;9.566;2023-05-10T12:59:13;5.18;;;2.20;;
38609;SDS011;24367;51.640;9.566;2023-05-10T13:01:40;9.57;;;2.80;;
38609;SDS011;24367;51.640;9.566;2023-05-10T13:04:08;8.50;;;3.13;;
38609;SDS011;24367;51.640;9.566;2023-05-10T13:06:34;7.78;;;2.53;;
38609;SDS011;24367;51.640;9.566;2023-05-10T13:09:01;4.53;;;2.75;;
38609;SDS011;24367;51.640;9.566;2023-05-10T13:11:27;5.00;;;2.53;;
38609;SDS011;24367;51.640;9.566;2023-05-10T13:13:54;3.72;;;2.30;;
38609;SDS011;24367;51.640;9.566;2023-05-10T13:16:20;6.22;;;2.70;;
38609;SDS011;24367;51.640;9.566;2023-05-10T13:18:47;10.45;;;2.92;;
38609;SDS011;24367;51.640;9.566;2023-05-10T13:21:15;6.90;;;2.40;;
38609;SDS011;24367;51.640;9.566;2023-05-10T13:23:41;5.75;;;2.72;;
38609;SDS011;24367;51.640;9.566;2023-05-10T13:26:08;8.02;;;2.60;;
38609;SDS011;24367;51.640;9.566;2023-05-10T13:28:34;6.55;;;2.70;;
38609;SDS011;24367;51.640;9.566;2023-05-10T13:31:01;8.18;;;2.58;;
38609;SDS011;24367;51.640;9.566;2023-05-10T13:33:27;13.35;;;2.65;;
38609;SDS011;24367;51.640;9.566;2023-05-10T13:35:54;7.78;;;2.47;;
38609;SDS011;24367;51.640;9.566;2023-05-10T13:38:21;8.65;;;2.80;;
38609;SDS011;24367;51.640;9.566;2023-05-10T13:40:48;8.30;;;2.55;;
38609;SDS011;24367;51.640;9.566;2023-05-10T13:43:17;7.15;;;2.63;;
38609;SDS011;24367;51.640;9.566;2023-05-10T13:45:44;6.88;;;2.70;;
38609;SDS011;24367;51.640;9.566;2023-05-10T13:48:10;6.55;;;2.58;;
38609;SDS011;24367;51.640;9.566;2023-05-10T13:50:37;6.68;;;2.90;;
38609;SDS011;24367;51.640;9.566;2023-05-10T13:53:03;7.80;;;2.78;;
38609;SDS011;24367;51.640;9.566;2023-05-10T13:55:31;12.48;;;3.15;;
38609;SDS011;24367;51.640;9.566;2023-05-10T13:57:58;5.75;;;2.63;;
38609;SDS011;24367;51.640;9.566;2023-05-10T14:00:25;5.45;;;2.20;;
38609;SDS011;24367;51.640;9.566;2023-05-10T14:02:52;9.10;;;2.83;;
38609;SDS011;24367;51.640;9.566;2023-05-10T14:05:18;9.40;;;2.90;;
38609;SDS011;24367;51.640;9.566;2023-05-10T14:07:45;8.93;;;2.75;;
38609;SDS011;24367;51.640;9.566;2023-05-10T14:10:11;7.72;;;2.60;;
38609;SDS011;24367;51.640;9.566;2023-05-10T14:12:39;8.77;;;2.38;;
38609;SDS011;24367;51.640;9.566;2023-05-10T14:15:06;5.35;;;2.35;;
38609;SDS011;24367;51.640;9.566;2023-05-10T14:17:35;10.90;;;2.65;;
38609;SDS011;24367;51.640;9.566;2023-05-10T14:20:01;8.32;;;3.40;;
38609;SDS011;24367;51.640;9.566;2023-05-10T14:22:29;11.20;;;3.35;;
38609;SDS011;24367;51.640;9.566;2023-05-10T14:24:55;10.93;;;4.80;;
38609;SDS011;24367;51.640;9.566;2023-05-10T14:27:22;10.02;;;4.35;;
38609;SDS011;24367;51.640;9.566;2023-05-10T14:29:50;11.70;;;4.30;;
38609;SDS011;24367;51.640;9.566;2023-05-10T14:32:16;7.75;;;4.30;;
38609;SDS011;24367;51.640;9.566;2023-05-10T14:34:43;9.63;;;3.92;;
38609;SDS011;24367;51.640;9.566;2023-05-10T14:37:10;7.25;;;3.45;;
38609;SDS011;24367;51.640;9.566;2023-05-10T14:39:36;10.15;;;3.20;;
38609;SDS011;24367;51.640;9.566;2023-05-10T14:42:03;8.40;;;3.20;;
38609;SDS011;24367;51.640;9.566;2023-05-10T14:44:29;9.32;;;3.03;;
38609;SDS011;24367;51.640;9.566;2023-05-10T14:46:57;8.65;;;4.00;;
38609;SDS011;24367;51.640;9.566;2023-05-10T14:49:24;7.78;;;5.43;;
38609;SDS011;24367;51.640;9.566;2023-05-10T14:51:51;12.07;;;6.43;;
38609;SDS011;24367;51.640;9.566;2023-05-10T14:54:17;8.30;;;6.15;;
38609;SDS011;24367;51.640;9.566;2023-05-10T14:56:44;10.75;;;5.78;;
38609;SDS011;24367;51.640;9.566;2023-05-10T14:59:11;9.70;;;5.25;;